Terminal Aerodrome Forecast
Issued by NWS

Home | Current Version | Previous Version | Text Only | Print | Product List | Glossary On
Versions: 1 2 3 4 5 6 7 8 9 10 11 12 13 14
027
FTUS43 KMQT 182320
TAFSAW
TAF
KSAW 182320Z 1900/1924 22004KT P6SM FEW140
     FM190600 00000KT 4SM BR FEW150
     FM191000 00000KT 2SM BR FEW140
     FM191200 20003KT 3SM BR SCT130
     FM191600 21006KT P6SM FEW130
     FM191900 21006KT P6SM FEW020=

USA.gov is the U.S. government's official web portal to all federal, state and local government web resources and services.